Time,TemperatureF,DewpointF,PressureIn,WindDirection,WindDirectionDegrees,WindSpeedMPH,WindSpeedGustMPH,Humidity,HourlyPrecipIn,Conditions,Clouds,dailyrainin,SoftwareType,DateUTC
2013-10-31 00:14:00,56.0,52.0,30.30,SW,229,1.0,4.0,87,0.00,,,0.00,,2013-10-31 04:14:00,
2013-10-31 00:24:00,56.0,52.0,30.30,SW,224,0.0,4.0,87,0.00,,,0.00,,2013-10-31 04:24:00,
2013-10-31 00:43:00,56.0,52.0,30.30,WSW,255,0.0,7.0,88,0.00,,,0.00,,2013-10-31 04:43:00,
2013-10-31 00:54:00,55.0,52.0,30.29,WSW,245,1.0,6.0,88,0.00,,,0.00,,2013-10-31 04:54:00,
2013-10-31 01:13:00,55.0,52.0,30.29,West,269,1.0,4.0,88,0.00,,,0.00,,2013-10-31 05:13:00,
2013-10-31 01:23:00,55.0,52.0,30.29,WSW,256,2.0,7.0,88,0.00,,,0.00,,2013-10-31 05:23:00,
2013-10-31 01:43:00,55.0,52.0,30.29,SW,215,2.0,6.0,89,0.00,,,0.00,,2013-10-31 05:43:00,
2013-10-31 01:52:00,55.0,52.0,30.29,West,267,1.0,5.0,89,0.00,,,0.00,,2013-10-31 05:52:00,
2013-10-31 02:13:00,54.0,51.0,30.29,WSW,243,0.0,2.0,90,0.00,,,0.00,,2013-10-31 06:13:00,
2013-10-31 02:22:00,54.0,51.0,30.29,SW,232,1.0,5.0,90,0.00,,,0.00,,2013-10-31 06:22:00,
2013-10-31 02:42:00,54.0,51.0,30.29,South,183,1.0,4.0,90,0.00,,,0.00,,2013-10-31 06:42:00,
2013-10-31 02:53:00,54.0,51.0,30.29,ENE,64,0.0,6.0,89,0.00,,,0.00,,2013-10-31 06:53:00,
2013-10-31 03:12:00,54.0,51.0,30.28,SW,229,0.0,4.0,88,0.00,,,0.00,,2013-10-31 07:12:00,
2013-10-31 03:22:00,54.0,51.0,30.28,North,8,0.0,3.0,88,0.00,,,0.00,,2013-10-31 07:22:00,
2013-10-31 03:42:00,55.0,52.0,30.27,ENE,78,1.0,5.0,88,0.00,,,0.00,,2013-10-31 07:42:00,
2013-10-31 03:52:00,55.0,51.0,30.27,SW,236,3.0,6.0,87,0.00,,,0.00,,2013-10-31 07:52:00,
2013-10-31 04:12:00,55.0,51.0,30.27,SW,226,0.0,6.0,87,0.00,,,0.00,,2013-10-31 08:12:00,
2013-10-31 04:22:00,55.0,51.0,30.26,ENE,77,2.0,9.0,86,0.00,,,0.00,,2013-10-31 08:22:00,
2013-10-31 04:42:00,55.0,51.0,30.25,West,277,1.0,5.0,87,0.00,,,0.00,,2013-10-31 08:42:00,
2013-10-31 04:52:00,54.0,50.0,30.25,NE,46,4.0,9.0,87,0.00,,,0.00,,2013-10-31 08:52:00,
2013-10-31 05:11:00,54.0,50.0,30.25,South,173,4.0,8.0,87,0.00,,,0.00,,2013-10-31 09:11:00,
2013-10-31 05:22:00,54.0,50.0,30.24,WNW,302,2.0,6.0,87,0.00,,,0.00,,2013-10-31 09:22:00,
2013-10-31 05:43:00,54.0,51.0,30.24,SW,224,2.0,8.0,88,0.00,,,0.00,,2013-10-31 09:43:00,
2013-10-31 05:53:00,54.0,50.0,30.24,SW,232,3.0,8.0,87,0.00,,,0.00,,2013-10-31 09:53:00,
2013-10-31 06:13:00,54.0,50.0,30.24,East,79,2.0,7.0,87,0.00,,,0.00,,2013-10-31 10:13:00,
2013-10-31 06:42:00,53.0,50.0,30.24,WSW,239,3.0,9.0,88,0.00,,,0.00,,2013-10-31 10:42:00,
2013-10-31 06:53:00,53.0,50.0,30.24,SW,225,4.0,15.0,88,0.00,,,0.00,,2013-10-31 10:53:00,
2013-10-31 07:12:00,53.0,50.0,30.24,SW,219,4.0,10.0,88,0.00,,,0.00,,2013-10-31 11:12:00,
2013-10-31 07:22:00,53.0,50.0,30.25,NNE,29,2.0,9.0,89,0.00,,,0.00,,2013-10-31 11:22:00,
2013-10-31 07:42:00,53.0,50.0,30.25,SW,222,2.0,7.0,89,0.00,,,0.00,,2013-10-31 11:42:00,
2013-10-31 07:52:00,53.0,50.0,30.26,SSW,210,4.0,7.0,90,0.00,,,0.00,,2013-10-31 11:52:00,
2013-10-31 08:12:00,53.0,50.0,30.25,ESE,120,3.0,7.0,90,0.00,,,0.00,,2013-10-31 12:12:00,
2013-10-31 08:22:00,53.0,50.0,30.25,NE,51,1.0,9.0,89,0.00,,,0.00,,2013-10-31 12:22:00,
2013-10-31 08:42:00,53.0,50.0,30.24,SW,226,2.0,10.0,89,0.00,,,0.00,,2013-10-31 12:42:00,
2013-10-31 08:52:00,53.0,50.0,30.24,NNE,29,2.0,9.0,89,0.00,,,0.00,,2013-10-31 12:52:00,
2013-10-31 09:12:00,53.0,50.0,30.24,NW,313,5.0,9.0,88,0.00,,,0.00,,2013-10-31 13:12:00,
2013-10-31 09:22:00,53.0,50.0,30.24,SSW,208,4.0,8.0,89,0.00,,,0.00,,2013-10-31 13:22:00,
2013-10-31 09:42:00,53.0,50.0,30.23,SW,229,1.0,8.0,88,0.00,,,0.00,,2013-10-31 13:42:00,
2013-10-31 09:52:00,53.0,50.0,30.23,West,274,4.0,7.0,89,0.00,,,0.00,,2013-10-31 13:52:00,
2013-10-31 10:11:00,54.0,51.0,30.23,WSW,242,3.0,8.0,88,0.00,,,0.00,,2013-10-31 14:11:00,
2013-10-31 10:22:00,54.0,51.0,30.23,ESE,116,2.0,9.0,88,0.00,,,0.00,,2013-10-31 14:22:00,
2013-10-31 10:42:00,54.0,50.0,30.23,East,84,5.0,13.0,86,0.00,,,0.00,,2013-10-31 14:42:00,
2013-10-31 10:52:00,54.0,49.0,30.23,SSW,204,5.0,14.0,84,0.00,,,0.00,,2013-10-31 14:52:00,
2013-10-31 11:11:00,53.0,49.0,30.23,SW,236,6.0,14.0,86,0.00,,,0.00,,2013-10-31 15:11:00,
2013-10-31 12:23:00,54.0,50.0,30.20,ESE,108,3.0,11.0,85,0.00,,,0.00,,2013-10-31 16:23:00,
2013-10-31 12:53:00,54.0,48.0,30.19,WSW,243,2.0,10.0,81,0.00,,,0.00,,2013-10-31 16:53:00,
2013-10-31 13:12:00,54.0,49.0,30.18,SW,231,7.0,14.0,82,0.00,,,0.00,,2013-10-31 17:12:00,
2013-10-31 13:22:00,54.0,49.0,30.17,SW,236,5.0,13.0,84,0.00,,,0.00,,2013-10-31 17:22:00,
2013-10-31 13:43:00,54.0,50.0,30.17,West,263,6.0,10.0,86,0.00,,,0.00,,2013-10-31 17:43:00,
2013-10-31 13:52:00,54.0,50.0,30.17,West,263,6.0,10.0,86,0.00,,,0.00,,2013-10-31 17:52:00,
2013-10-31 14:22:00,54.0,51.0,30.15,WSW,252,5.0,11.0,90,0.00,,,0.00,,2013-10-31 18:22:00,
2013-10-31 14:42:00,54.0,51.0,30.14,SW,225,3.0,9.0,90,0.00,,,0.00,,2013-10-31 18:42:00,
2013-10-31 14:52:00,53.0,51.0,30.13,SW,236,4.0,7.0,92,0.00,,,0.00,,2013-10-31 18:52:00,
2013-10-31 15:22:00,54.0,53.0,30.11,NE,41,7.0,15.0,95,0.00,,,0.00,,2013-10-31 19:22:00,
2013-10-31 15:52:00,54.0,53.0,30.11,WNW,283,6.0,15.0,96,0.00,,,0.00,,2013-10-31 19:52:00,
2013-10-31 16:22:00,55.0,54.0,30.09,ESE,108,3.0,12.0,95,0.00,,,0.00,,2013-10-31 20:22:00,
2013-10-31 16:42:00,55.0,54.0,30.10,WSW,248,4.0,9.0,95,0.00,,,0.00,,2013-10-31 20:42:00,
2013-10-31 16:52:00,55.0,54.0,30.09,SW,236,4.0,9.0,95,0.00,,,0.00,,2013-10-31 20:52:00,
2013-10-31 17:11:00,56.0,55.0,30.08,East,96,5.0,17.0,95,0.00,,,0.00,,2013-10-31 21:11:00,
2013-10-31 17:22:00,56.0,54.0,30.08,WSW,248,3.0,16.0,94,0.00,,,0.00,,2013-10-31 21:22:00,
2013-10-31 17:44:00,56.0,54.0,30.07,NE,47,7.0,21.0,94,0.00,,,0.00,,2013-10-31 21:44:00,
2013-10-31 17:54:00,57.0,55.0,30.06,SW,233,8.0,15.0,94,0.00,,,0.00,,2013-10-31 21:54:00,
2013-10-31 18:14:00,57.0,56.0,30.06,SE,146,5.0,17.0,95,0.00,,,0.00,,2013-10-31 22:14:00,
2013-10-31 18:24:00,57.0,55.0,30.06,NW,318,5.0,15.0,94,0.00,,,0.00,,2013-10-31 22:24:00,
2013-10-31 18:43:00,57.0,55.0,30.05,NNE,27,8.0,20.0,94,0.00,,,0.00,,2013-10-31 22:43:00,
2013-10-31 18:53:00,57.0,55.0,30.06,WSW,257,6.0,19.0,94,0.00,,,0.00,,2013-10-31 22:53:00,
2013-10-31 19:22:00,57.0,56.0,30.05,SSE,165,7.0,20.0,95,0.00,,,0.00,,2013-10-31 23:22:00,
2013-10-31 19:54:00,57.0,56.0,30.06,NE,40,8.0,26.0,95,0.00,,,0.00,,2013-10-31 23:54:00,
2013-10-31 20:12:00,57.0,56.0,30.06,SSW,210,5.0,22.0,95,0.00,,,0.00,,2013-11-01 00:12:00,
2013-10-31 20:21:00,57.0,56.0,30.05,WSW,240,7.0,23.0,95,0.00,,,0.00,,2013-11-01 00:21:00,
2013-10-31 20:42:00,57.0,56.0,30.06,NW,309,5.0,17.0,96,0.00,,,0.00,,2013-11-01 00:42:00,
2013-10-31 20:52:00,57.0,56.0,30.05,WSW,241,7.0,22.0,96,0.00,,,0.00,,2013-11-01 00:52:00,
2013-10-31 21:12:00,57.0,56.0,30.05,SW,219,9.0,29.0,96,0.00,,,0.00,,2013-11-01 01:12:00,
2013-10-31 21:22:00,56.0,55.0,30.05,SW,225,5.0,18.0,97,0.00,,,0.00,,2013-11-01 01:22:00,
2013-10-31 21:42:00,56.0,55.0,30.04,North,349,7.0,18.0,97,0.01,,,0.01,,2013-11-01 01:42:00,
2013-10-31 21:52:00,56.0,55.0,30.05,SW,232,11.0,24.0,97,0.01,,,0.01,,2013-11-01 01:52:00,
2013-10-31 22:22:00,56.0,55.0,30.04,SSW,203,10.0,22.0,97,0.01,,,0.01,,2013-11-01 02:22:00,
2013-10-31 22:42:00,56.0,55.0,30.03,SSW,212,6.0,13.0,98,0.01,,,0.02,,2013-11-01 02:42:00,
2013-10-31 22:52:00,56.0,55.0,30.04,East,89,7.0,18.0,98,0.01,,,0.02,,2013-11-01 02:52:00,
2013-10-31 23:12:00,56.0,55.0,30.03,WNW,287,5.0,22.0,98,0.01,,,0.02,,2013-11-01 03:12:00,
2013-10-31 23:22:00,56.0,55.0,30.03,SW,232,8.0,21.0,98,0.01,,,0.02,,2013-11-01 03:22:00,
2013-10-31 23:45:00,57.0,56.0,30.03,SW,232,9.0,23.0,98,0.01,,,0.03,,2013-11-01 03:45:00,
2013-10-31 23:54:00,57.0,56.0,30.02,ENE,58,9.0,21.0,98,0.02,,,0.04,,2013-11-01 03:54:00,